Terminal Aerodrome Forecast
Issued by NWS

Home | Current Version | Previous Version | Text Only | Print | Product List | Glossary On
Versions: 1 2 3 4 5 6 7 8 9 10 11 12 13 14 15 16 17 18 19
000
FTUS45 KBOU 010532
TAFBJC
TAF
KBJC 010532Z 0106/0206 25006KT P6SM BKN080 BKN150
     FM011500 VRB06KT P6SM SCT100 BKN180
     FM012300 15006KT P6SM SCT100 SCT200
     FM020400 25008KT P6SM SCT100 BKN200=

USA.gov is the U.S. government's official web portal to all federal, state and local government web resources and services.